San Francisco, California
Traffic Map
Current Weather Conditions
San Francisco, California
Overcast
Overcast
63°
Feels Like: 63°
Wind Chill: 63° Ceiling: 2000
Heat Index: 63° Visibility: 10mi
Dew Point: 57° Wind: 12mph
Humidity: 81% Direction: 200° (SSW)
Pressure: 29.89in Gusts: 0mph
Raw Report DataKSFO 201356Z 20010KT 10SM OVC020 17/14 A2989 RMK AO2 SLP120 T01720139 $
Traffic Incident Summary
Active as of:
Severity:
Category:
InformationThere was an issue retrieving the traffic information for this location. Please try a different location or try again shortly.
Advertisements
Track Severe Weather on mobile